sensor_id;sensor_type;location;lat;lon;timestamp;temperature;humidity
30999;DHT22;20549;50.042;8.968;2022-10-16T00:00:41;17.90;99.90
30999;DHT22;20549;50.042;8.968;2022-10-16T00:03:07;17.90;99.90
30999;DHT22;20549;50.042;8.968;2022-10-16T00:05:37;17.90;99.90
30999;DHT22;20549;50.042;8.968;2022-10-16T00:08:00;17.90;99.90
30999;DHT22;20549;50.042;8.968;2022-10-16T00:10:27;17.90;99.90
30999;DHT22;20549;50.042;8.968;2022-10-16T00:12:54;17.90;99.90
30999;DHT22;20549;50.042;8.968;2022-10-16T00:15:20;17.90;99.90
30999;DHT22;20549;50.042;8.968;2022-10-16T00:17:47;17.90;99.90
30999;DHT22;20549;50.042;8.968;2022-10-16T00:20:13;17.90;99.90
30999;DHT22;20549;50.042;8.968;2022-10-16T00:22:40;17.90;99.90
30999;DHT22;20549;50.042;8.968;2022-10-16T00:25:07;17.90;99.90
30999;DHT22;20549;50.042;8.968;2022-10-16T00:27:33;17.90;99.90
30999;DHT22;20549;50.042;8.968;2022-10-16T00:30:00;17.90;99.90
30999;DHT22;20549;50.042;8.968;2022-10-16T00:32:26;17.90;99.90
30999;DHT22;20549;50.042;8.968;2022-10-16T00:34:53;17.90;99.90
30999;DHT22;20549;50.042;8.968;2022-10-16T00:37:20;17.80;99.90
30999;DHT22;20549;50.042;8.968;2022-10-16T00:39:46;17.80;99.90
30999;DHT22;20549;50.042;8.968;2022-10-16T00:42:16;17.80;99.90
30999;DHT22;20549;50.042;8.968;2022-10-16T00:44:49;17.80;99.90
30999;DHT22;20549;50.042;8.968;2022-10-16T00:47:19;17.80;99.90
30999;DHT22;20549;50.042;8.968;2022-10-16T00:49:44;17.80;99.90
30999;DHT22;20549;50.042;8.968;2022-10-16T00:52:10;17.70;99.90
30999;DHT22;20549;50.042;8.968;2022-10-16T00:54:37;17.70;99.90
30999;DHT22;20549;50.042;8.968;2022-10-16T00:57:04;17.80;99.90
30999;DHT22;20549;50.042;8.968;2022-10-16T00:59:34;17.80;99.90
30999;DHT22;20549;50.042;8.968;2022-10-16T01:02:00;17.80;99.90
30999;DHT22;20549;50.042;8.968;2022-10-16T01:04:26;17.80;99.90
30999;DHT22;20549;50.042;8.968;2022-10-16T01:09:42;17.80;99.90
30999;DHT22;20549;50.042;8.968;2022-10-16T01:12:10;17.80;99.90
30999;DHT22;20549;50.042;8.968;2022-10-16T01:15:16;17.80;99.90
30999;DHT22;20549;50.042;8.968;2022-10-16T01:17:45;17.80;99.90
30999;DHT22;20549;50.042;8.968;2022-10-16T01:20:12;17.80;99.90
30999;DHT22;20549;50.042;8.968;2022-10-16T01:25:36;17.80;99.90
30999;DHT22;20549;50.042;8.968;2022-10-16T01:27:56;17.90;99.90
30999;DHT22;20549;50.042;8.968;2022-10-16T01:30:25;17.90;99.90
30999;DHT22;20549;50.042;8.968;2022-10-16T01:32:52;17.90;99.90
30999;DHT22;20549;50.042;8.968;2022-10-16T01:35:25;17.90;99.90
30999;DHT22;20549;50.042;8.968;2022-10-16T01:37:50;17.90;99.90
30999;DHT22;20549;50.042;8.968;2022-10-16T01:40:16;18.00;99.90
30999;DHT22;20549;50.042;8.968;2022-10-16T01:42:42;18.00;99.90
30999;DHT22;20549;50.042;8.968;2022-10-16T01:45:08;18.00;99.90
30999;DHT22;20549;50.042;8.968;2022-10-16T01:47:35;18.10;99.90
30999;DHT22;20549;50.042;8.968;2022-10-16T01:50:02;18.10;99.90
30999;DHT22;20549;50.042;8.968;2022-10-16T01:52:28;18.20;99.90
30999;DHT22;20549;50.042;8.968;2022-10-16T01:54:55;18.20;99.90
30999;DHT22;20549;50.042;8.968;2022-10-16T01:57:21;18.20;99.90
30999;DHT22;20549;50.042;8.968;2022-10-16T01:59:49;18.20;99.90
30999;DHT22;20549;50.042;8.968;2022-10-16T02:02:14;18.20;99.90
30999;DHT22;20549;50.042;8.968;2022-10-16T02:04:44;18.30;99.90
30999;DHT22;20549;50.042;8.968;2022-10-16T02:07:10;18.30;99.90
30999;DHT22;20549;50.042;8.968;2022-10-16T02:09:36;18.30;99.90
30999;DHT22;20549;50.042;8.968;2022-10-16T02:12:37;18.30;99.90
30999;DHT22;20549;50.042;8.968;2022-10-16T02:14:42;18.30;99.90
30999;DHT22;20549;50.042;8.968;2022-10-16T02:17:15;18.40;99.90
30999;DHT22;20549;50.042;8.968;2022-10-16T02:19:41;18.30;99.90
30999;DHT22;20549;50.042;8.968;2022-10-16T02:22:08;18.30;99.90
30999;DHT22;20549;50.042;8.968;2022-10-16T02:24:37;18.40;99.90
30999;DHT22;20549;50.042;8.968;2022-10-16T02:27:05;18.30;99.90
30999;DHT22;20549;50.042;8.968;2022-10-16T02:29:30;18.30;99.90
30999;DHT22;20549;50.042;8.968;2022-10-16T02:31:58;18.30;99.90
30999;DHT22;20549;50.042;8.968;2022-10-16T02:34:23;18.30;99.90
30999;DHT22;20549;50.042;8.968;2022-10-16T02:36:50;18.30;99.90
30999;DHT22;20549;50.042;8.968;2022-10-16T02:39:16;18.30;99.90
30999;DHT22;20549;50.042;8.968;2022-10-16T02:41:43;18.30;99.90
30999;DHT22;20549;50.042;8.968;2022-10-16T02:44:09;18.30;99.90
30999;DHT22;20549;50.042;8.968;2022-10-16T02:46:36;18.30;99.90
30999;DHT22;20549;50.042;8.968;2022-10-16T02:49:03;18.30;99.90
30999;DHT22;20549;50.042;8.968;2022-10-16T02:51:29;18.30;99.90
30999;DHT22;20549;50.042;8.968;2022-10-16T02:53:58;18.20;99.90
30999;DHT22;20549;50.042;8.968;2022-10-16T02:56:25;18.20;99.90
30999;DHT22;20549;50.042;8.968;2022-10-16T02:58:52;18.30;99.90
30999;DHT22;20549;50.042;8.968;2022-10-16T03:01:18;18.20;99.90
30999;DHT22;20549;50.042;8.968;2022-10-16T03:03:45;18.20;99.90
30999;DHT22;20549;50.042;8.968;2022-10-16T03:06:11;18.20;99.90
30999;DHT22;20549;50.042;8.968;2022-10-16T03:08:38;18.20;99.90
30999;DHT22;20549;50.042;8.968;2022-10-16T03:11:05;18.20;99.90
30999;DHT22;20549;50.042;8.968;2022-10-16T03:13:31;18.20;99.90
30999;DHT22;20549;50.042;8.968;2022-10-16T03:15:58;18.20;99.90
30999;DHT22;20549;50.042;8.968;2022-10-16T03:18:24;18.20;99.90
30999;DHT22;20549;50.042;8.968;2022-10-16T03:20:51;18.20;99.90
30999;DHT22;20549;50.042;8.968;2022-10-16T03:23:18;18.20;99.90
30999;DHT22;20549;50.042;8.968;2022-10-16T03:25:44;18.20;99.90
30999;DHT22;20549;50.042;8.968;2022-10-16T03:28:11;18.20;99.90
30999;DHT22;20549;50.042;8.968;2022-10-16T03:30:37;18.20;99.90
30999;DHT22;20549;50.042;8.968;2022-10-16T03:33:04;18.20;99.90
30999;DHT22;20549;50.042;8.968;2022-10-16T03:35:31;18.20;99.90
30999;DHT22;20549;50.042;8.968;2022-10-16T03:37:57;18.20;99.90
30999;DHT22;20549;50.042;8.968;2022-10-16T03:40:24;18.20;99.90
30999;DHT22;20549;50.042;8.968;2022-10-16T03:42:50;18.10;99.90
30999;DHT22;20549;50.042;8.968;2022-10-16T03:45:17;18.20;99.90
30999;DHT22;20549;50.042;8.968;2022-10-16T03:47:43;18.20;99.90
30999;DHT22;20549;50.042;8.968;2022-10-16T03:50:10;18.20;99.90
30999;DHT22;20549;50.042;8.968;2022-10-16T03:52:37;18.20;99.90
30999;DHT22;20549;50.042;8.968;2022-10-16T03:55:03;18.20;99.90
30999;DHT22;20549;50.042;8.968;2022-10-16T03:57:30;18.20;99.90
30999;DHT22;20549;50.042;8.968;2022-10-16T03:59:56;18.20;99.90
30999;DHT22;20549;50.042;8.968;2022-10-16T04:02:23;18.20;99.90
30999;DHT22;20549;50.042;8.968;2022-10-16T04:04:50;18.20;99.90
30999;DHT22;20549;50.042;8.968;2022-10-16T04:07:16;18.20;99.90
30999;DHT22;20549;50.042;8.968;2022-10-16T04:09:43;18.20;99.90
30999;DHT22;20549;50.042;8.968;2022-10-16T04:12:09;18.20;99.90
30999;DHT22;20549;50.042;8.968;2022-10-16T04:14:36;18.20;99.90
30999;DHT22;20549;50.042;8.968;2022-10-16T04:17:03;18.20;99.90
30999;DHT22;20549;50.042;8.968;2022-10-16T04:19:29;18.20;99.90
30999;DHT22;20549;50.042;8.968;2022-10-16T04:21:56;18.20;99.90
30999;DHT22;20549;50.042;8.968;2022-10-16T04:24:22;18.20;99.90
30999;DHT22;20549;50.042;8.968;2022-10-16T04:26:49;18.20;99.90
30999;DHT22;20549;50.042;8.968;2022-10-16T04:29:16;18.20;99.90
30999;DHT22;20549;50.042;8.968;2022-10-16T04:31:42;18.20;99.90
30999;DHT22;20549;50.042;8.968;2022-10-16T04:34:10;18.20;99.90
30999;DHT22;20549;50.042;8.968;2022-10-16T04:36:36;18.20;99.90
30999;DHT22;20549;50.042;8.968;2022-10-16T04:39:03;18.20;99.90
30999;DHT22;20549;50.042;8.968;2022-10-16T04:41:30;18.20;99.90
30999;DHT22;20549;50.042;8.968;2022-10-16T04:43:56;18.20;99.90
30999;DHT22;20549;50.042;8.968;2022-10-16T04:46:23;18.20;99.90
30999;DHT22;20549;50.042;8.968;2022-10-16T04:48:49;18.20;99.90
30999;DHT22;20549;50.042;8.968;2022-10-16T04:51:16;18.20;99.90
30999;DHT22;20549;50.042;8.968;2022-10-16T04:53:43;18.20;99.90
30999;DHT22;20549;50.042;8.968;2022-10-16T04:56:09;18.30;99.90
30999;DHT22;20549;50.042;8.968;2022-10-16T04:58:36;18.20;99.90
30999;DHT22;20549;50.042;8.968;2022-10-16T05:01:02;18.30;99.90
30999;DHT22;20549;50.042;8.968;2022-10-16T05:03:29;18.30;99.90
30999;DHT22;20549;50.042;8.968;2022-10-16T05:05:56;18.30;99.90
30999;DHT22;20549;50.042;8.968;2022-10-16T05:08:22;18.30;99.90
30999;DHT22;20549;50.042;8.968;2022-10-16T05:10:49;18.30;99.90
30999;DHT22;20549;50.042;8.968;2022-10-16T05:13:15;18.30;99.90
30999;DHT22;20549;50.042;8.968;2022-10-16T05:15:47;18.30;99.90
30999;DHT22;20549;50.042;8.968;2022-10-16T05:18:09;18.30;99.90
30999;DHT22;20549;50.042;8.968;2022-10-16T05:20:35;18.30;99.90
30999;DHT22;20549;50.042;8.968;2022-10-16T05:23:02;18.30;99.90
30999;DHT22;20549;50.042;8.968;2022-10-16T05:25:28;18.30;99.90
30999;DHT22;20549;50.042;8.968;2022-10-16T05:27:55;18.30;99.90
30999;DHT22;20549;50.042;8.968;2022-10-16T05:30:21;18.30;99.90
30999;DHT22;20549;50.042;8.968;2022-10-16T05:32:48;18.30;99.90
30999;DHT22;20549;50.042;8.968;2022-10-16T05:35:15;18.30;99.90
30999;DHT22;20549;50.042;8.968;2022-10-16T05:37:41;18.30;99.90
30999;DHT22;20549;50.042;8.968;2022-10-16T05:40:08;18.30;99.90
30999;DHT22;20549;50.042;8.968;2022-10-16T05:42:34;18.30;99.90
30999;DHT22;20549;50.042;8.968;2022-10-16T05:45:01;18.30;99.90
30999;DHT22;20549;50.042;8.968;2022-10-16T05:47:28;18.30;99.90
30999;DHT22;20549;50.042;8.968;2022-10-16T05:49:54;18.30;99.90
30999;DHT22;20549;50.042;8.968;2022-10-16T05:52:21;18.30;99.90
30999;DHT22;20549;50.042;8.968;2022-10-16T05:54:47;18.40;99.90
30999;DHT22;20549;50.042;8.968;2022-10-16T05:57:14;18.40;99.90
30999;DHT22;20549;50.042;8.968;2022-10-16T05:59:41;18.40;99.90
30999;DHT22;20549;50.042;8.968;2022-10-16T06:02:08;18.40;99.90
30999;DHT22;20549;50.042;8.968;2022-10-16T06:04:34;18.40;99.90
30999;DHT22;20549;50.042;8.968;2022-10-16T06:07:00;18.40;99.90
30999;DHT22;20549;50.042;8.968;2022-10-16T06:09:27;18.40;99.90
30999;DHT22;20549;50.042;8.968;2022-10-16T06:11:53;18.40;99.90
30999;DHT22;20549;50.042;8.968;2022-10-16T06:14:20;18.40;99.90
30999;DHT22;20549;50.042;8.968;2022-10-16T06:16:47;18.40;99.90
30999;DHT22;20549;50.042;8.968;2022-10-16T06:19:13;18.40;99.90
30999;DHT22;20549;50.042;8.968;2022-10-16T06:21:40;18.40;99.90
30999;DHT22;20549;50.042;8.968;2022-10-16T06:24:06;18.40;99.90
30999;DHT22;20549;50.042;8.968;2022-10-16T06:26:33;18.40;99.90
30999;DHT22;20549;50.042;8.968;2022-10-16T06:29:00;18.40;99.90
30999;DHT22;20549;50.042;8.968;2022-10-16T06:31:26;18.40;99.90
30999;DHT22;20549;50.042;8.968;2022-10-16T06:33:53;18.40;99.90
30999;DHT22;20549;50.042;8.968;2022-10-16T06:36:19;18.40;99.90
30999;DHT22;20549;50.042;8.968;2022-10-16T06:38:46;18.40;99.90
30999;DHT22;20549;50.042;8.968;2022-10-16T06:41:13;18.40;99.90
30999;DHT22;20549;50.042;8.968;2022-10-16T06:43:39;18.50;99.90
30999;DHT22;20549;50.042;8.968;2022-10-16T06:46:06;18.50;99.90
30999;DHT22;20549;50.042;8.968;2022-10-16T06:48:32;18.50;99.90
30999;DHT22;20549;50.042;8.968;2022-10-16T06:50:59;18.50;99.90
30999;DHT22;20549;50.042;8.968;2022-10-16T06:53:26;18.60;99.90
30999;DHT22;20549;50.042;8.968;2022-10-16T06:55:52;18.60;99.90
30999;DHT22;20549;50.042;8.968;2022-10-16T06:58:19;18.60;99.90
30999;DHT22;20549;50.042;8.968;2022-10-16T07:00:45;18.70;99.90
30999;DHT22;20549;50.042;8.968;2022-10-16T07:03:12;18.70;99.90
30999;DHT22;20549;50.042;8.968;2022-10-16T07:05:39;18.70;99.90
30999;DHT22;20549;50.042;8.968;2022-10-16T07:08:05;18.70;99.90
30999;DHT22;20549;50.042;8.968;2022-10-16T07:10:32;18.80;99.90
30999;DHT22;20549;50.042;8.968;2022-10-16T07:12:58;18.80;99.90
30999;DHT22;20549;50.042;8.968;2022-10-16T07:15:25;18.90;99.90
30999;DHT22;20549;50.042;8.968;2022-10-16T07:17:51;18.90;99.90
30999;DHT22;20549;50.042;8.968;2022-10-16T07:20:18;19.00;99.90
30999;DHT22;20549;50.042;8.968;2022-10-16T07:22:45;19.00;99.90
30999;DHT22;20549;50.042;8.968;2022-10-16T07:25:11;19.10;99.90
30999;DHT22;20549;50.042;8.968;2022-10-16T07:27:38;19.20;99.90
30999;DHT22;20549;50.042;8.968;2022-10-16T07:30:04;19.20;99.90
30999;DHT22;20549;50.042;8.968;2022-10-16T07:32:31;19.30;99.90
30999;DHT22;20549;50.042;8.968;2022-10-16T07:34:58;19.40;99.90
30999;DHT22;20549;50.042;8.968;2022-10-16T07:37:24;19.40;99.90
30999;DHT22;20549;50.042;8.968;2022-10-16T07:39:51;19.50;99.90
30999;DHT22;20549;50.042;8.968;2022-10-16T07:42:17;19.50;99.90
30999;DHT22;20549;50.042;8.968;2022-10-16T07:44:44;19.60;99.90
30999;DHT22;20549;50.042;8.968;2022-10-16T07:47:11;19.60;99.90
30999;DHT22;20549;50.042;8.968;2022-10-16T07:49:37;19.70;99.90
30999;DHT22;20549;50.042;8.968;2022-10-16T07:52:05;19.70;99.90
30999;DHT22;20549;50.042;8.968;2022-10-16T07:54:31;19.70;99.90
30999;DHT22;20549;50.042;8.968;2022-10-16T07:56:58;19.70;99.90
30999;DHT22;20549;50.042;8.968;2022-10-16T07:59:25;19.70;99.90
30999;DHT22;20549;50.042;8.968;2022-10-16T08:01:51;19.70;99.90
30999;DHT22;20549;50.042;8.968;2022-10-16T08:04:18;19.70;99.90
30999;DHT22;20549;50.042;8.968;2022-10-16T08:06:44;19.70;99.90
30999;DHT22;20549;50.042;8.968;2022-10-16T08:09:11;19.70;99.90
30999;DHT22;20549;50.042;8.968;2022-10-16T08:11:38;19.70;99.90
30999;DHT22;20549;50.042;8.968;2022-10-16T08:14:04;19.70;99.90
30999;DHT22;20549;50.042;8.968;2022-10-16T08:16:31;19.70;99.90
30999;DHT22;20549;50.042;8.968;2022-10-16T08:18:57;19.70;99.90
30999;DHT22;20549;50.042;8.968;2022-10-16T08:21:24;19.70;99.90
30999;DHT22;20549;50.042;8.968;2022-10-16T08:23:50;19.70;99.90
30999;DHT22;20549;50.042;8.968;2022-10-16T08:26:17;19.80;99.90
30999;DHT22;20549;50.042;8.968;2022-10-16T08:28:44;19.80;99.90
30999;DHT22;20549;50.042;8.968;2022-10-16T08:31:11;19.80;99.90
30999;DHT22;20549;50.042;8.968;2022-10-16T08:33:37;19.90;99.90
30999;DHT22;20549;50.042;8.968;2022-10-16T08:36:04;19.90;99.90
30999;DHT22;20549;50.042;8.968;2022-10-16T08:38:30;20.00;99.90
30999;DHT22;20549;50.042;8.968;2022-10-16T08:43:52;20.00;99.90
30999;DHT22;20549;50.042;8.968;2022-10-16T08:46:44;20.10;99.90
30999;DHT22;20549;50.042;8.968;2022-10-16T08:49:09;20.10;99.90
30999;DHT22;20549;50.042;8.968;2022-10-16T08:51:35;20.10;99.90
30999;DHT22;20549;50.042;8.968;2022-10-16T08:56:39;20.20;99.90
30999;DHT22;20549;50.042;8.968;2022-10-16T08:59:06;20.20;99.90
30999;DHT22;20549;50.042;8.968;2022-10-16T09:01:42;20.20;99.90
30999;DHT22;20549;50.042;8.968;2022-10-16T09:06:54;20.30;99.90
30999;DHT22;20549;50.042;8.968;2022-10-16T09:20:13;20.40;99.90
30999;DHT22;20549;50.042;8.968;2022-10-16T09:22:35;20.50;99.90
30999;DHT22;20549;50.042;8.968;2022-10-16T09:25:10;20.50;99.90
30999;DHT22;20549;50.042;8.968;2022-10-16T09:27:28;20.60;99.90
30999;DHT22;20549;50.042;8.968;2022-10-16T09:29:54;20.60;99.90
30999;DHT22;20549;50.042;8.968;2022-10-16T09:32:21;20.70;99.90
30999;DHT22;20549;50.042;8.968;2022-10-16T09:34:52;20.80;99.90
30999;DHT22;20549;50.042;8.968;2022-10-16T09:37:18;20.90;99.90
30999;DHT22;20549;50.042;8.968;2022-10-16T09:39:48;21.00;99.90
30999;DHT22;20549;50.042;8.968;2022-10-16T09:42:13;21.00;99.90
30999;DHT22;20549;50.042;8.968;2022-10-16T09:44:37;21.10;99.90
30999;DHT22;20549;50.042;8.968;2022-10-16T09:47:04;21.20;99.90
30999;DHT22;20549;50.042;8.968;2022-10-16T09:49:30;21.30;99.90
30999;DHT22;20549;50.042;8.968;2022-10-16T09:52:12;21.30;99.90
30999;DHT22;20549;50.042;8.968;2022-10-16T09:54:48;21.50;99.90
30999;DHT22;20549;50.042;8.968;2022-10-16T09:57:05;21.60;99.90
30999;DHT22;20549;50.042;8.968;2022-10-16T09:59:31;21.70;99.90
30999;DHT22;20549;50.042;8.968;2022-10-16T10:02:01;21.90;99.90
30999;DHT22;20549;50.042;8.968;2022-10-16T10:04:24;22.00;99.90
30999;DHT22;20549;50.042;8.968;2022-10-16T10:06:55;22.20;99.90
30999;DHT22;20549;50.042;8.968;2022-10-16T10:09:27;22.40;99.90
30999;DHT22;20549;50.042;8.968;2022-10-16T10:11:59;22.60;99.90
30999;DHT22;20549;50.042;8.968;2022-10-16T10:16:52;22.80;99.90
30999;DHT22;20549;50.042;8.968;2022-10-16T10:19:20;23.00;99.90
30999;DHT22;20549;50.042;8.968;2022-10-16T10:21:45;23.10;99.90
30999;DHT22;20549;50.042;8.968;2022-10-16T10:24:13;23.30;99.90
30999;DHT22;20549;50.042;8.968;2022-10-16T10:26:38;23.40;99.90
30999;DHT22;20549;50.042;8.968;2022-10-16T10:32:02;23.80;99.90
30999;DHT22;20549;50.042;8.968;2022-10-16T10:40:03;24.20;99.90
30999;DHT22;20549;50.042;8.968;2022-10-16T10:42:52;24.30;99.90
30999;DHT22;20549;50.042;8.968;2022-10-16T10:45:26;24.40;99.90
30999;DHT22;20549;50.042;8.968;2022-10-16T10:50:45;24.60;99.90
30999;DHT22;20549;50.042;8.968;2022-10-16T10:56:06;24.80;99.90
30999;DHT22;20549;50.042;8.968;2022-10-16T11:01:14;25.10;99.90
30999;DHT22;20549;50.042;8.968;2022-10-16T11:06:46;25.40;99.90
30999;DHT22;20549;50.042;8.968;2022-10-16T11:09:15;25.50;99.90
30999;DHT22;20549;50.042;8.968;2022-10-16T11:24:53;25.70;99.20
30999;DHT22;20549;50.042;8.968;2022-10-16T11:27:17;25.70;98.70
30999;DHT22;20549;50.042;8.968;2022-10-16T11:29:49;25.70;98.30
30999;DHT22;20549;50.042;8.968;2022-10-16T11:32:17;25.60;98.10
30999;DHT22;20549;50.042;8.968;2022-10-16T11:34:40;25.60;98.30
30999;DHT22;20549;50.042;8.968;2022-10-16T11:37:19;25.60;98.40
30999;DHT22;20549;50.042;8.968;2022-10-16T11:39:44;25.60;98.20
30999;DHT22;20549;50.042;8.968;2022-10-16T11:42:27;25.60;98.40
30999;DHT22;20549;50.042;8.968;2022-10-16T11:47:45;25.60;97.40
30999;DHT22;20549;50.042;8.968;2022-10-16T11:50:25;25.60;97.40
30999;DHT22;20549;50.042;8.968;2022-10-16T11:55:38;25.60;96.50
30999;DHT22;20549;50.042;8.968;2022-10-16T12:01:13;25.50;96.40
30999;DHT22;20549;50.042;8.968;2022-10-16T12:03:34;25.50;96.20
30999;DHT22;20549;50.042;8.968;2022-10-16T12:06:06;25.40;96.40
30999;DHT22;20549;50.042;8.968;2022-10-16T12:08:33;25.40;96.50
30999;DHT22;20549;50.042;8.968;2022-10-16T12:11:22;25.40;96.10
30999;DHT22;20549;50.042;8.968;2022-10-16T12:13:37;25.40;95.70
30999;DHT22;20549;50.042;8.968;2022-10-16T12:18:39;25.40;95.40
30999;DHT22;20549;50.042;8.968;2022-10-16T12:21:05;25.30;95.40
30999;DHT22;20549;50.042;8.968;2022-10-16T12:23:32;25.30;95.70
30999;DHT22;20549;50.042;8.968;2022-10-16T12:25:59;25.30;95.40
30999;DHT22;20549;50.042;8.968;2022-10-16T12:28:34;25.20;95.70
30999;DHT22;20549;50.042;8.968;2022-10-16T12:31:01;25.30;95.70
30999;DHT22;20549;50.042;8.968;2022-10-16T12:33:28;25.20;95.70
30999;DHT22;20549;50.042;8.968;2022-10-16T12:35:53;25.20;95.30
30999;DHT22;20549;50.042;8.968;2022-10-16T12:38:45;25.20;94.50
30999;DHT22;20549;50.042;8.968;2022-10-16T12:41:06;25.20;94.40
30999;DHT22;20549;50.042;8.968;2022-10-16T12:46:05;25.10;94.60
30999;DHT22;20549;50.042;8.968;2022-10-16T12:48:31;25.10;94.60
30999;DHT22;20549;50.042;8.968;2022-10-16T12:51:08;25.10;95.10
30999;DHT22;20549;50.042;8.968;2022-10-16T12:53:25;25.20;95.30
30999;DHT22;20549;50.042;8.968;2022-10-16T12:59:18;25.20;94.60
30999;DHT22;20549;50.042;8.968;2022-10-16T13:01:21;25.30;94.10
30999;DHT22;20549;50.042;8.968;2022-10-16T13:09:17;25.20;92.80
30999;DHT22;20549;50.042;8.968;2022-10-16T13:11:55;25.10;92.60
30999;DHT22;20549;50.042;8.968;2022-10-16T13:14:41;25.00;92.10
30999;DHT22;20549;50.042;8.968;2022-10-16T13:20:31;24.80;92.40
30999;DHT22;20549;50.042;8.968;2022-10-16T13:24:53;24.60;92.70
30999;DHT22;20549;50.042;8.968;2022-10-16T13:27:38;24.50;92.50
30999;DHT22;20549;50.042;8.968;2022-10-16T13:30:08;24.50;92.60
30999;DHT22;20549;50.042;8.968;2022-10-16T13:32:28;24.40;92.90
30999;DHT22;20549;50.042;8.968;2022-10-16T13:34:54;24.40;93.20
30999;DHT22;20549;50.042;8.968;2022-10-16T13:37:22;24.30;93.80
30999;DHT22;20549;50.042;8.968;2022-10-16T13:39:48;24.30;94.10
30999;DHT22;20549;50.042;8.968;2022-10-16T13:42:22;24.40;94.40
30999;DHT22;20549;50.042;8.968;2022-10-16T13:44:48;24.40;94.20
30999;DHT22;20549;50.042;8.968;2022-10-16T13:47:17;24.40;94.30
30999;DHT22;20549;50.042;8.968;2022-10-16T13:49:46;24.40;94.40
30999;DHT22;20549;50.042;8.968;2022-10-16T13:52:18;24.50;94.20
30999;DHT22;20549;50.042;8.968;2022-10-16T13:54:44;24.50;94.10
30999;DHT22;20549;50.042;8.968;2022-10-16T13:57:14;24.50;93.60
30999;DHT22;20549;50.042;8.968;2022-10-16T13:59:40;24.50;93.50
30999;DHT22;20549;50.042;8.968;2022-10-16T14:02:33;24.50;93.60
30999;DHT22;20549;50.042;8.968;2022-10-16T14:04:58;24.50;93.30
30999;DHT22;20549;50.042;8.968;2022-10-16T14:07:25;24.50;93.40
30999;DHT22;20549;50.042;8.968;2022-10-16T14:09:51;24.50;93.40
30999;DHT22;20549;50.042;8.968;2022-10-16T14:12:18;24.50;93.40
30999;DHT22;20549;50.042;8.968;2022-10-16T14:14:48;24.50;93.00
30999;DHT22;20549;50.042;8.968;2022-10-16T14:17:26;24.50;92.70
30999;DHT22;20549;50.042;8.968;2022-10-16T14:19:59;24.50;92.40
30999;DHT22;20549;50.042;8.968;2022-10-16T14:22:27;24.50;92.20
30999;DHT22;20549;50.042;8.968;2022-10-16T14:24:51;24.50;92.00
30999;DHT22;20549;50.042;8.968;2022-10-16T14:27:31;24.40;91.70
30999;DHT22;20549;50.042;8.968;2022-10-16T14:30:19;24.40;91.60
30999;DHT22;20549;50.042;8.968;2022-10-16T14:33:00;24.30;91.70
30999;DHT22;20549;50.042;8.968;2022-10-16T14:35:27;24.20;91.80
30999;DHT22;20549;50.042;8.968;2022-10-16T14:37:52;24.10;92.00
30999;DHT22;20549;50.042;8.968;2022-10-16T14:40:18;24.10;92.10
30999;DHT22;20549;50.042;8.968;2022-10-16T14:42:45;23.90;92.40
30999;DHT22;20549;50.042;8.968;2022-10-16T14:45:12;23.90;92.40
30999;DHT22;20549;50.042;8.968;2022-10-16T14:47:45;23.80;92.60
30999;DHT22;20549;50.042;8.968;2022-10-16T14:50:07;23.70;92.80
30999;DHT22;20549;50.042;8.968;2022-10-16T14:52:31;23.70;93.20
30999;DHT22;20549;50.042;8.968;2022-10-16T14:54:58;23.60;93.50
30999;DHT22;20549;50.042;8.968;2022-10-16T14:57:27;23.60;93.90
30999;DHT22;20549;50.042;8.968;2022-10-16T14:59:51;23.50;94.20
30999;DHT22;20549;50.042;8.968;2022-10-16T15:04:47;23.50;94.70
30999;DHT22;20549;50.042;8.968;2022-10-16T15:07:14;23.50;94.80
30999;DHT22;20549;50.042;8.968;2022-10-16T15:09:40;23.50;94.90
30999;DHT22;20549;50.042;8.968;2022-10-16T15:12:07;23.40;95.00
30999;DHT22;20549;50.042;8.968;2022-10-16T15:14:34;23.40;95.10
30999;DHT22;20549;50.042;8.968;2022-10-16T15:17:00;23.40;95.30
30999;DHT22;20549;50.042;8.968;2022-10-16T15:19:27;23.40;95.30
30999;DHT22;20549;50.042;8.968;2022-10-16T15:21:53;23.30;95.30
30999;DHT22;20549;50.042;8.968;2022-10-16T15:24:20;23.30;95.30
30999;DHT22;20549;50.042;8.968;2022-10-16T15:26:47;23.30;95.40
30999;DHT22;20549;50.042;8.968;2022-10-16T15:29:13;23.20;95.50
30999;DHT22;20549;50.042;8.968;2022-10-16T15:31:40;23.20;95.60
30999;DHT22;20549;50.042;8.968;2022-10-16T15:34:07;23.10;95.70
30999;DHT22;20549;50.042;8.968;2022-10-16T15:36:34;23.10;95.90
30999;DHT22;20549;50.042;8.968;2022-10-16T15:39:12;23.00;96.00
30999;DHT22;20549;50.042;8.968;2022-10-16T15:41:31;23.00;96.30
30999;DHT22;20549;50.042;8.968;2022-10-16T15:43:58;22.90;96.50
30999;DHT22;20549;50.042;8.968;2022-10-16T15:46:25;22.90;96.70
30999;DHT22;20549;50.042;8.968;2022-10-16T15:48:51;22.90;96.90
30999;DHT22;20549;50.042;8.968;2022-10-16T15:51:18;22.80;97.00
30999;DHT22;20549;50.042;8.968;2022-10-16T15:53:44;22.80;97.20
30999;DHT22;20549;50.042;8.968;2022-10-16T15:56:11;22.80;97.30
30999;DHT22;20549;50.042;8.968;2022-10-16T15:58:38;22.70;97.50
30999;DHT22;20549;50.042;8.968;2022-10-16T16:01:04;22.70;97.60
30999;DHT22;20549;50.042;8.968;2022-10-16T16:03:31;22.70;97.70
30999;DHT22;20549;50.042;8.968;2022-10-16T16:05:58;22.60;97.80
30999;DHT22;20549;50.042;8.968;2022-10-16T16:08:24;22.60;97.80
30999;DHT22;20549;50.042;8.968;2022-10-16T16:10:57;22.60;97.90
30999;DHT22;20549;50.042;8.968;2022-10-16T16:13:23;22.50;97.90
30999;DHT22;20549;50.042;8.968;2022-10-16T16:15:50;22.50;98.00
30999;DHT22;20549;50.042;8.968;2022-10-16T16:18:16;22.40;98.20
30999;DHT22;20549;50.042;8.968;2022-10-16T16:20:43;22.40;98.20
30999;DHT22;20549;50.042;8.968;2022-10-16T16:23:10;22.20;98.30
30999;DHT22;20549;50.042;8.968;2022-10-16T16:25:36;22.20;98.50
30999;DHT22;20549;50.042;8.968;2022-10-16T16:28:03;22.10;98.30
30999;DHT22;20549;50.042;8.968;2022-10-16T16:30:29;22.00;99.00
30999;DHT22;20549;50.042;8.968;2022-10-16T16:32:56;21.90;99.30
30999;DHT22;20549;50.042;8.968;2022-10-16T16:35:23;21.90;99.70
30999;DHT22;20549;50.042;8.968;2022-10-16T16:37:49;21.80;99.90
30999;DHT22;20549;50.042;8.968;2022-10-16T16:40:16;21.70;99.90
30999;DHT22;20549;50.042;8.968;2022-10-16T16:42:42;21.70;99.90
30999;DHT22;20549;50.042;8.968;2022-10-16T16:45:09;21.60;99.90
30999;DHT22;20549;50.042;8.968;2022-10-16T16:47:36;21.60;99.90
30999;DHT22;20549;50.042;8.968;2022-10-16T16:50:02;21.60;99.90
30999;DHT22;20549;50.042;8.968;2022-10-16T16:52:29;21.50;99.90
30999;DHT22;20549;50.042;8.968;2022-10-16T16:54:55;21.50;99.90
30999;DHT22;20549;50.042;8.968;2022-10-16T16:57:22;21.40;99.90
30999;DHT22;20549;50.042;8.968;2022-10-16T16:59:49;21.40;99.90
30999;DHT22;20549;50.042;8.968;2022-10-16T17:02:15;21.40;99.90